Time;durP1;ratioP1;P1;durP2;ratioP2;P2;SDS_P1;SDS_P2;PMS_P1;PMS_P2;Temp;Humidity;BMP_temperature;BMP_pressure;BME280_temperature;BME280_humidity;BME280_pressure;Samples;Min_cycle;Max_cycle;Signal;HPM_P1;HPM_P2
2022/10/24 00:00:26;;;;;;;;;;;14.40;99.90;;;;;;4955606;29;19907;-79
2022/10/24 00:02:51;;;;;;;;;;;14.30;99.90;;;;;;4955352;29;20025;-79
2022/10/24 00:05:17;;;;;;;;;;;14.40;99.90;;;;;;4955256;29;20365;-77
2022/10/24 00:07:42;;;;;;;;;;;14.30;99.90;;;;;;4955445;29;19913;-79
2022/10/24 00:10:11;;;;;;;;;;;14.30;99.90;;;;;;4955247;29;19907;-78
2022/10/24 00:12:36;;;;;;;;;;;14.40;99.90;;;;;;4955265;29;19917;-78
2022/10/24 00:15:02;;;;;;;;;;;14.40;99.90;;;;;;4955120;29;20304;-77
2022/10/24 00:17:28;;;;;;;;;;;14.40;99.90;;;;;;4955166;29;20404;-78
2022/10/24 00:19:53;;;;;;;;;;;14.30;99.90;;;;;;4955017;29;19982;-77
2022/10/24 00:22:19;;;;;;;;;;;14.30;99.90;;;;;;4937855;29;19996;-80
2022/10/24 00:24:45;;;;;;;;;;;14.20;99.90;;;;;;4954715;29;20005;-79
2022/10/24 00:27:11;;;;;;;;;;;14.20;99.90;;;;;;4937814;29;20329;-79
2022/10/24 00:29:36;;;;;;;;;;;14.10;99.90;;;;;;4955064;29;19907;-79
2022/10/24 00:32:02;;;;;;;;;;;14.10;99.90;;;;;;4954878;29;19916;-79
2022/10/24 00:34:27;;;;;;;;;;;14.10;99.90;;;;;;4956117;28;19961;-79
2022/10/24 00:36:53;;;;;;;;;;;14.00;99.90;;;;;;4959142;29;19961;-78
2022/10/24 00:39:18;;;;;;;;;;;14.00;99.90;;;;;;4958536;29;19917;-79
2022/10/24 00:41:44;;;;;;;;;;;13.90;99.90;;;;;;4958462;29;19907;-80
2022/10/24 00:44:21;;;;;;;;;;;13.90;99.90;;;;;;4958687;29;20266;-78
2022/10/24 00:46:48;;;;;;;;;;;13.80;99.90;;;;;;4941142;29;20368;-79
2022/10/24 00:49:16;;;;;;;;;;;13.80;99.90;;;;;;4958322;29;19993;-80
2022/10/24 00:51:43;;;;;;;;;;;13.80;99.90;;;;;;4958781;29;20320;-79
2022/10/24 00:54:09;;;;;;;;;;;13.80;99.90;;;;;;4958221;29;19949;-79
2022/10/24 00:56:38;;;;;;;;;;;13.80;99.90;;;;;;4958250;29;20280;-80
2022/10/24 00:59:06;;;;;;;;;;;13.80;99.90;;;;;;4958163;29;19907;-79
2022/10/24 01:01:33;;;;;;;;;;;13.80;99.90;;;;;;4958110;29;19957;-79
2022/10/24 01:03:58;;;;;;;;;;;13.80;99.90;;;;;;4958096;29;19949;-77
2022/10/24 01:06:33;;;;;;;;;;;13.80;99.90;;;;;;4958257;29;19937;-79
2022/10/24 01:09:01;;;;;;;;;;;13.80;99.90;;;;;;4958003;29;19907;-78
2022/10/24 01:11:37;;;;;;;;;;;13.80;99.90;;;;;;4957831;29;20340;-79
2022/10/24 01:14:11;;;;;;;;;;;13.70;99.90;;;;;;4958107;29;19906;-79
2022/10/24 01:16:42;;;;;;;;;;;13.70;99.90;;;;;;4958028;29;19911;-78
2022/10/24 01:19:31;;;;;;;;;;;13.80;99.90;;;;;;4957932;29;19915;-77
2022/10/24 01:22:02;;;;;;;;;;;13.70;99.90;;;;;;4947311;28;19907;-78
2022/10/24 01:24:34;;;;;;;;;;;13.80;99.90;;;;;;4957755;29;19953;-79
2022/10/24 01:27:18;;;;;;;;;;;13.80;99.90;;;;;;4940426;29;19910;-79
2022/10/24 01:29:58;;;;;;;;;;;13.90;99.90;;;;;;4957587;29;19989;-78
2022/10/24 01:32:53;;;;;;;;;;;13.90;99.90;;;;;;4940271;29;19910;-79
2022/10/24 01:35:42;;;;;;;;;;;14.00;99.90;;;;;;4940476;29;20377;-79
2022/10/24 01:38:11;;;;;;;;;;;14.00;99.90;;;;;;4921141;29;19906;-80
2022/10/24 01:40:44;;;;;;;;;;;14.00;99.90;;;;;;4957410;29;19930;-80
2022/10/24 01:43:10;;;;;;;;;;;14.10;99.90;;;;;;4939857;29;19910;-80
2022/10/24 01:45:39;;;;;;;;;;;14.00;99.90;;;;;;4939977;29;20382;-79
2022/10/24 01:48:06;;;;;;;;;;;14.10;99.90;;;;;;4957271;29;19910;-78
2022/10/24 01:50:33;;;;;;;;;;;14.10;99.90;;;;;;4957355;29;19913;-80
2022/10/24 01:52:59;;;;;;;;;;;14.10;99.90;;;;;;4957713;29;19906;-77
2022/10/24 01:55:25;;;;;;;;;;;14.10;99.90;;;;;;4957382;29;19907;-79
2022/10/24 01:57:50;;;;;;;;;;;14.20;99.90;;;;;;4957204;29;20292;-79
2022/10/24 02:00:21;;;;;;;;;;;14.20;99.90;;;;;;4957237;29;20369;-78
2022/10/24 02:03:09;;;;;;;;;;;14.20;99.90;;;;;;4957036;29;19914;-78
2022/10/24 02:05:38;;;;;;;;;;;14.20;99.90;;;;;;4946527;29;19931;-79
2022/10/24 02:08:06;;;;;;;;;;;14.20;99.90;;;;;;4957202;29;19906;-79
2022/10/24 02:10:34;;;;;;;;;;;14.10;99.90;;;;;;4956775;29;19906;-79
2022/10/24 02:13:10;;;;;;;;;;;14.10;99.90;;;;;;4956652;29;19933;-78
2022/10/24 02:15:37;;;;;;;;;;;14.10;99.90;;;;;;4956968;29;19907;-78
2022/10/24 02:18:03;;;;;;;;;;;14.20;99.90;;;;;;4956728;29;19913;-78
2022/10/24 02:20:38;;;;;;;;;;;14.20;99.90;;;;;;4956662;29;19914;-79
2022/10/24 02:23:03;;;;;;;;;;;14.30;99.90;;;;;;4956468;29;19906;-80
2022/10/24 02:25:32;;;;;;;;;;;14.30;99.90;;;;;;4956769;29;20416;-79
2022/10/24 02:28:18;;;;;;;;;;;14.30;99.90;;;;;;4956612;29;20384;-80
2022/10/24 02:30:47;;;;;;;;;;;14.20;99.90;;;;;;4955648;29;20013;-78
2022/10/24 02:33:13;;;;;;;;;;;14.20;99.90;;;;;;4939165;29;20005;-79
2022/10/24 02:35:39;;;;;;;;;;;14.10;99.90;;;;;;4956326;29;19916;-77
2022/10/24 02:38:12;;;;;;;;;;;14.10;99.90;;;;;;4956437;29;19993;-79
2022/10/24 02:40:38;;;;;;;;;;;14.10;99.90;;;;;;4956336;29;20179;-80
2022/10/24 02:43:05;;;;;;;;;;;14.10;99.90;;;;;;4956284;29;19965;-78
2022/10/24 02:45:31;;;;;;;;;;;14.10;99.90;;;;;;4956219;29;19910;-78
2022/10/24 02:47:59;;;;;;;;;;;14.10;99.90;;;;;;4956193;29;20328;-79
2022/10/24 02:50:25;;;;;;;;;;;14.00;99.90;;;;;;4938786;29;19906;-77
2022/10/24 02:52:50;;;;;;;;;;;14.00;99.90;;;;;;4956722;29;19906;-77
2022/10/24 02:55:16;;;;;;;;;;;14.00;99.90;;;;;;4956315;29;19906;-80
2022/10/24 02:57:42;;;;;;;;;;;13.90;99.90;;;;;;4938408;29;19945;-79
2022/10/24 03:00:08;;;;;;;;;;;14.00;99.90;;;;;;4938732;29;19938;-79
2022/10/24 03:02:33;;;;;;;;;;;13.90;99.90;;;;;;4956286;29;20045;-79
2022/10/24 03:04:59;;;;;;;;;;;13.90;99.90;;;;;;4956247;29;19917;-79
2022/10/24 03:07:24;;;;;;;;;;;13.90;99.90;;;;;;4955924;29;19910;-79
2022/10/24 03:09:50;;;;;;;;;;;13.80;99.90;;;;;;4956127;29;19906;-79
2022/10/24 03:12:16;;;;;;;;;;;13.90;99.90;;;;;;4956198;29;19951;-78
2022/10/24 03:14:42;;;;;;;;;;;13.90;99.90;;;;;;4955820;29;19993;-77
2022/10/24 03:17:07;;;;;;;;;;;13.80;99.90;;;;;;4938551;29;19989;-79
2022/10/24 03:19:33;;;;;;;;;;;13.80;99.90;;;;;;4955813;29;19906;-78
2022/10/24 03:21:58;;;;;;;;;;;13.90;99.90;;;;;;4955694;29;20319;-79
2022/10/24 03:24:24;;;;;;;;;;;14.00;99.90;;;;;;4955488;29;19918;-80
2022/10/24 03:26:51;;;;;;;;;;;14.00;99.90;;;;;;4955769;29;19910;-78
2022/10/24 03:29:19;;;;;;;;;;;14.00;99.90;;;;;;4938315;29;20296;-78
2022/10/24 03:31:45;;;;;;;;;;;14.00;99.90;;;;;;4955994;29;19918;-79
2022/10/24 03:34:10;;;;;;;;;;;14.00;99.90;;;;;;4955496;29;20006;-78
2022/10/24 03:36:36;;;;;;;;;;;14.10;99.90;;;;;;4955520;29;19910;-78
2022/10/24 03:39:02;;;;;;;;;;;14.10;99.90;;;;;;4955479;29;19906;-80
2022/10/24 03:41:28;;;;;;;;;;;14.20;99.90;;;;;;4955454;29;19910;-78
2022/10/24 03:43:54;;;;;;;;;;;14.10;99.90;;;;;;4955641;29;20261;-78
2022/10/24 03:46:19;;;;;;;;;;;14.20;99.90;;;;;;4955431;29;20053;-80
2022/10/24 03:48:45;;;;;;;;;;;14.30;99.90;;;;;;4955440;29;19906;-78
2022/10/24 03:51:10;;;;;;;;;;;14.40;95.30;;;;;;4955454;29;19914;-78
2022/10/24 03:53:36;;;;;;;;;;;14.50;97.50;;;;;;4956087;29;20391;-79
2022/10/24 03:56:02;;;;;;;;;;;14.60;65.80;;;;;;4955326;29;20045;-77
2022/10/24 03:58:27;;;;;;;;;;;14.50;99.90;;;;;;4955313;29;19907;-80
2022/10/24 04:00:55;;;;;;;;;;;14.50;99.90;;;;;;4955234;29;19913;-78
2022/10/24 04:03:21;;;;;;;;;;;14.40;99.90;;;;;;4938054;29;19988;-79
2022/10/24 04:05:46;;;;;;;;;;;14.30;99.90;;;;;;4955281;29;20360;-79
2022/10/24 04:08:12;;;;;;;;;;;14.40;99.90;;;;;;4955338;28;19913;-78
2022/10/24 04:10:38;;;;;;;;;;;14.40;99.90;;;;;;4958335;29;19949;-79
2022/10/24 04:13:03;;;;;;;;;;;14.40;99.90;;;;;;4959014;29;19933;-79
2022/10/24 04:15:29;;;;;;;;;;;14.50;99.90;;;;;;4958926;29;19910;-79
2022/10/24 04:17:55;;;;;;;;;;;14.50;99.90;;;;;;4959286;29;19906;-78
2022/10/24 04:20:22;;;;;;;;;;;14.50;99.90;;;;;;4958815;29;19913;-78
2022/10/24 04:22:48;;;;;;;;;;;14.50;99.90;;;;;;4958669;29;19914;-79
2022/10/24 04:25:14;;;;;;;;;;;14.60;99.90;;;;;;4958779;29;19910;-78
2022/10/24 04:27:40;;;;;;;;;;;14.60;99.90;;;;;;4958690;29;19917;-79
2022/10/24 04:30:12;;;;;;;;;;;14.60;99.90;;;;;;4958666;29;20292;-78
2022/10/24 04:32:38;;;;;;;;;;;14.60;99.90;;;;;;4958839;29;19911;-78
2022/10/24 04:35:04;;;;;;;;;;;14.60;99.90;;;;;;4958757;29;19914;-78
2022/10/24 04:37:29;;;;;;;;;;;14.60;99.90;;;;;;4958528;29;19917;-79
2022/10/24 04:39:55;;;;;;;;;;;14.60;99.90;;;;;;4958528;29;19907;-79
2022/10/24 04:42:21;;;;;;;;;;;14.70;99.90;;;;;;4958454;29;19913;-78
2022/10/24 04:44:47;;;;;;;;;;;14.60;99.90;;;;;;4958646;29;19942;-80
2022/10/24 04:47:12;;;;;;;;;;;14.60;99.90;;;;;;4958385;29;20393;-78
2022/10/24 04:49:38;;;;;;;;;;;14.60;99.90;;;;;;4958444;29;19945;-78
2022/10/24 04:52:03;;;;;;;;;;;14.60;99.90;;;;;;4959019;29;19922;-79
2022/10/24 04:54:29;;;;;;;;;;;14.60;99.90;;;;;;4958327;29;20403;-78
2022/10/24 04:56:55;;;;;;;;;;;14.60;99.90;;;;;;4958376;29;19988;-78
2022/10/24 04:59:20;;;;;;;;;;;14.60;99.90;;;;;;4958326;29;19997;-78
2022/10/24 05:01:46;;;;;;;;;;;14.60;99.90;;;;;;4958206;29;19906;-78
2022/10/24 05:04:11;;;;;;;;;;;14.70;82.00;;;;;;4958154;29;20443;-79
2022/10/24 05:06:37;;;;;;;;;;;14.70;64.20;;;;;;4958076;29;19906;-78
2022/10/24 05:09:03;;;;;;;;;;;14.60;68.90;;;;;;4958108;29;19984;-78
2022/10/24 05:11:29;;;;;;;;;;;14.60;96.90;;;;;;4958004;29;19910;-79
2022/10/24 05:13:54;;;;;;;;;;;14.60;94.10;;;;;;4957922;29;19907;-78
2022/10/24 05:16:20;;;;;;;;;;;14.60;99.30;;;;;;4958436;29;19913;-78
2022/10/24 05:18:45;;;;;;;;;;;14.60;94.20;;;;;;4958022;29;19914;-77
2022/10/24 05:21:11;;;;;;;;;;;14.60;99.90;;;;;;4957147;28;19914;-78
2022/10/24 05:23:37;;;;;;;;;;;14.60;99.90;;;;;;4957529;29;19940;-79
2022/10/24 05:26:02;;;;;;;;;;;14.60;99.90;;;;;;4957668;29;20336;-79
2022/10/24 05:28:28;;;;;;;;;;;14.60;99.90;;;;;;4957795;29;19907;-78
2022/10/24 05:30:53;;;;;;;;;;;14.60;99.90;;;;;;4957606;29;19911;-78
2022/10/24 05:33:19;;;;;;;;;;;14.60;99.90;;;;;;4957421;29;19953;-79
2022/10/24 05:35:44;;;;;;;;;;;14.60;99.90;;;;;;4957479;29;19906;-78
2022/10/24 05:38:10;;;;;;;;;;;14.50;99.90;;;;;;4957421;29;20356;-80
2022/10/24 05:40:36;;;;;;;;;;;14.50;99.90;;;;;;4957809;29;19906;-78
2022/10/24 05:43:01;;;;;;;;;;;14.50;99.90;;;;;;4957589;29;19957;-78
2022/10/24 05:45:27;;;;;;;;;;;14.50;99.90;;;;;;4957326;29;20391;-79
2022/10/24 05:47:53;;;;;;;;;;;14.60;99.90;;;;;;4957247;29;19907;-78
2022/10/24 05:50:18;;;;;;;;;;;14.60;99.90;;;;;;4957631;29;19906;-77
2022/10/24 05:52:44;;;;;;;;;;;14.60;99.90;;;;;;4957792;29;19910;-78
2022/10/24 05:55:09;;;;;;;;;;;14.60;99.90;;;;;;4957131;29;19917;-77
2022/10/24 05:57:36;;;;;;;;;;;14.60;99.90;;;;;;4957023;29;20284;-79
2022/10/24 06:00:03;;;;;;;;;;;14.70;99.90;;;;;;4957063;29;20020;-78
2022/10/24 06:02:29;;;;;;;;;;;14.70;99.90;;;;;;4956936;29;20373;-78
2022/10/24 06:04:56;;;;;;;;;;;14.70;99.90;;;;;;4957042;29;19953;-78
2022/10/24 06:07:21;;;;;;;;;;;14.60;99.90;;;;;;4956791;29;19906;-78
2022/10/24 06:09:47;;;;;;;;;;;14.60;99.90;;;;;;4956879;29;19912;-77
2022/10/24 06:12:12;;;;;;;;;;;14.60;99.90;;;;;;4956712;29;20341;-79
2022/10/24 06:14:38;;;;;;;;;;;14.60;99.90;;;;;;4956923;29;19906;-78
2022/10/24 06:17:05;;;;;;;;;;;14.60;99.90;;;;;;4957049;29;19910;-78
2022/10/24 06:19:31;;;;;;;;;;;14.60;99.90;;;;;;4956678;29;19906;-78
2022/10/24 06:21:56;;;;;;;;;;;14.60;99.90;;;;;;4956548;29;19969;-78
2022/10/24 06:24:22;;;;;;;;;;;14.60;99.90;;;;;;4956420;29;20042;-78
2022/10/24 06:26:47;;;;;;;;;;;14.60;99.90;;;;;;4956556;29;19906;-78
2022/10/24 06:29:13;;;;;;;;;;;14.60;99.90;;;;;;4956411;29;19913;-78
2022/10/24 06:31:38;;;;;;;;;;;14.60;99.90;;;;;;4955960;28;19910;-78
2022/10/24 06:34:04;;;;;;;;;;;14.60;99.90;;;;;;4956337;29;19918;-79
2022/10/24 06:36:30;;;;;;;;;;;14.60;99.90;;;;;;4956430;29;19957;-77
2022/10/24 06:38:56;;;;;;;;;;;14.60;99.90;;;;;;4956262;29;19906;-78
2022/10/24 06:41:22;;;;;;;;;;;14.60;99.90;;;;;;4938998;29;19906;-79
2022/10/24 06:43:48;;;;;;;;;;;14.60;99.90;;;;;;4956242;29;20001;-79
2022/10/24 06:46:14;;;;;;;;;;;14.60;99.90;;;;;;4956259;29;20431;-78
2022/10/24 06:48:40;;;;;;;;;;;14.60;99.90;;;;;;4956074;29;20388;-79
2022/10/24 06:51:06;;;;;;;;;;;14.60;99.90;;;;;;4956010;29;19949;-79
2022/10/24 06:53:32;;;;;;;;;;;14.60;99.90;;;;;;4956636;29;19913;-78
2022/10/24 06:56:01;;;;;;;;;;;14.60;99.90;;;;;;4956168;29;19907;-79
2022/10/24 06:58:31;;;;;;;;;;;14.60;99.90;;;;;;4956083;29;19938;-79
2022/10/24 07:00:57;;;;;;;;;;;14.60;99.90;;;;;;4956349;29;19953;-78
2022/10/24 07:03:22;;;;;;;;;;;14.70;99.90;;;;;;4956263;29;19910;-78
2022/10/24 07:05:48;;;;;;;;;;;14.70;99.90;;;;;;4955845;29;19961;-78
2022/10/24 07:08:13;;;;;;;;;;;14.60;99.90;;;;;;4955901;29;19906;-79
2022/10/24 07:10:39;;;;;;;;;;;14.70;99.90;;;;;;4955920;29;20008;-79
2022/10/24 07:13:05;;;;;;;;;;;14.70;99.90;;;;;;4938611;29;19906;-79
2022/10/24 07:15:30;;;;;;;;;;;14.80;99.90;;;;;;4938576;29;19989;-78
2022/10/24 07:17:56;;;;;;;;;;;14.80;99.90;;;;;;4955799;29;19929;-78
2022/10/24 07:20:21;;;;;;;;;;;14.70;99.90;;;;;;4955763;29;19906;-77
2022/10/24 07:22:47;;;;;;;;;;;14.70;99.90;;;;;;4955619;29;19907;-79
2022/10/24 07:25:12;;;;;;;;;;;14.80;99.90;;;;;;4955710;29;19997;-78
2022/10/24 07:27:38;;;;;;;;;;;14.80;99.90;;;;;;4955733;29;19913;-79
2022/10/24 07:30:05;;;;;;;;;;;14.90;99.90;;;;;;4955654;29;19914;-78
2022/10/24 07:32:30;;;;;;;;;;;15.00;99.90;;;;;;4955509;29;19918;-77
2022/10/24 07:34:56;;;;;;;;;;;15.00;99.90;;;;;;4955573;29;20387;-79
2022/10/24 07:37:21;;;;;;;;;;;15.00;99.90;;;;;;4955977;29;19961;-80
2022/10/24 07:39:47;;;;;;;;;;;15.00;99.90;;;;;;4938333;29;19957;-79
2022/10/24 07:42:13;;;;;;;;;;;15.10;99.90;;;;;;4955531;29;20401;-79
2022/10/24 07:44:38;;;;;;;;;;;15.10;99.80;;;;;;4960780;28;19906;-78
2022/10/24 07:47:06;;;;;;;;;;;15.10;99.90;;;;;;4961844;28;20436;-78
2022/10/24 07:49:32;;;;;;;;;;;15.00;99.90;;;;;;4962138;28;19961;-78
2022/10/24 07:52:01;;;;;;;;;;;15.00;70.50;;;;;;4961940;29;19911;-79
2022/10/24 07:54:27;;;;;;;;;;;15.10;81.20;;;;;;4961838;29;19957;-79
2022/10/24 07:56:53;;;;;;;;;;;15.10;92.90;;;;;;4944496;28;19914;-79
2022/10/24 07:59:18;;;;;;;;;;;15.10;95.40;;;;;;4961765;28;19906;-78
2022/10/24 08:01:44;;;;;;;;;;;15.20;79.50;;;;;;4961818;29;20408;-78
2022/10/24 08:04:10;;;;;;;;;;;15.20;90.60;;;;;;4961702;28;19910;-78
2022/10/24 08:06:36;;;;;;;;;;;15.30;63.80;;;;;;4961687;29;19913;-79
2022/10/24 08:09:01;;;;;;;;;;;15.50;15.60;;;;;;4944347;29;19906;-80
2022/10/24 08:11:27;;;;;;;;;;;16.10;1.00;;;;;;4961855;29;19917;-79
2022/10/24 08:13:53;;;;;;;;;;;17.30;1.00;;;;;;4961814;29;20344;-79
2022/10/24 08:16:20;;;;;;;;;;;18.10;99.90;;;;;;4961586;28;20377;-78
2022/10/24 08:18:46;;;;;;;;;;;18.40;1.00;;;;;;4961553;29;19906;-79
2022/10/24 08:21:13;;;;;;;;;;;19.00;99.90;;;;;;4961459;28;19913;-79
2022/10/24 08:23:40;;;;;;;;;;;19.20;99.90;;;;;;4961629;29;19918;-79
2022/10/24 08:26:06;;;;;;;;;;;19.80;99.90;;;;;;4961612;29;19953;-77
2022/10/24 08:28:33;;;;;;;;;;;19.80;99.90;;;;;;4961683;29;19997;-79
2022/10/24 08:31:03;;;;;;;;;;;20.60;99.90;;;;;;4961357;29;19921;-77
2022/10/24 08:33:29;;;;;;;;;;;21.30;99.90;;;;;;4961825;29;20277;-79
2022/10/24 08:35:57;;;;;;;;;;;21.30;99.90;;;;;;4944194;29;19913;-79
2022/10/24 08:38:22;;;;;;;;;;;21.10;99.90;;;;;;4961473;29;19929;-79
2022/10/24 08:40:48;;;;;;;;;;;20.90;99.90;;;;;;4961340;29;20380;-79
2022/10/24 08:43:15;;;;;;;;;;;21.60;99.90;;;;;;4961338;29;19906;-79
2022/10/24 08:46:00;;;;;;;;;;;20.60;99.90;;;;;;4961372;28;19906;-79
2022/10/24 08:48:29;;;;;;;;;;;20.10;99.90;;;;;;4930725;29;20396;-79
2022/10/24 08:50:59;;;;;;;;;;;20.50;99.90;;;;;;4961264;29;19918;-78
2022/10/24 08:53:27;;;;;;;;;;;21.50;99.90;;;;;;4944557;29;20336;-79
2022/10/24 08:55:54;;;;;;;;;;;20.80;99.90;;;;;;4958653;28;19958;-79
2022/10/24 08:58:24;;;;;;;;;;;20.80;99.90;;;;;;4958325;29;19949;-80
2022/10/24 09:00:51;;;;;;;;;;;21.90;99.90;;;;;;4958307;29;19933;-78
2022/10/24 09:03:25;;;;;;;;;;;22.00;99.90;;;;;;4958155;29;19954;-78
2022/10/24 09:05:56;;;;;;;;;;;22.30;99.90;;;;;;4958237;29;19914;-79
2022/10/24 09:08:39;;;;;;;;;;;22.00;99.90;;;;;;4958718;29;19906;-79
2022/10/24 09:11:06;;;;;;;;;;;22.40;99.90;;;;;;4958202;29;19965;-79
2022/10/24 09:13:34;;;;;;;;;;;22.30;93.60;;;;;;4958326;29;19907;-79
2022/10/24 09:15:59;;;;;;;;;;;22.50;96.90;;;;;;4957921;29;20357;-78
2022/10/24 09:18:33;;;;;;;;;;;21.80;99.90;;;;;;4957874;29;19949;-79
2022/10/24 09:20:59;;;;;;;;;;;22.30;99.90;;;;;;4940390;29;20005;-79
2022/10/24 09:23:25;;;;;;;;;;;23.20;99.20;;;;;;4957604;29;19997;-79
2022/10/24 09:25:52;;;;;;;;;;;23.90;97.80;;;;;;4957873;29;19914;-80
2022/10/24 09:28:18;;;;;;;;;;;24.70;94.60;;;;;;4957617;29;20380;-79
2022/10/24 09:30:44;;;;;;;;;;;24.90;93.10;;;;;;4957619;29;19938;-79
2022/10/24 09:33:14;;;;;;;;;;;24.80;93.90;;;;;;4957581;29;19907;-78
2022/10/24 09:35:41;;;;;;;;;;;24.20;93.60;;;;;;4958044;29;20360;-79
2022/10/24 09:38:22;;;;;;;;;;;23.50;96.50;;;;;;4957506;29;19941;-79
2022/10/24 09:40:49;;;;;;;;;;;23.00;96.60;;;;;;4957517;29;20383;-79
2022/10/24 09:43:16;;;;;;;;;;;24.40;95.00;;;;;;4957461;29;19906;-79
2022/10/24 09:45:44;;;;;;;;;;;24.90;92.30;;;;;;4957320;29;19949;-79
2022/10/24 09:48:36;;;;;;;;;;;26.00;89.00;;;;;;4957441;29;19910;-77
2022/10/24 09:51:02;;;;;;;;;;;26.40;86.30;;;;;;4936086;29;19910;-78
2022/10/24 09:53:29;;;;;;;;;;;27.40;83.60;;;;;;4957732;29;19965;-78
2022/10/24 09:55:57;;;;;;;;;;;28.00;81.60;;;;;;4957344;29;19906;-78
2022/10/24 09:58:28;;;;;;;;;;;28.40;76.50;;;;;;4957183;29;19906;-78
2022/10/24 10:01:21;;;;;;;;;;;26.80;77.40;;;;;;4957118;29;20361;-76
2022/10/24 10:04:03;;;;;;;;;;;25.40;82.70;;;;;;4953747;29;20369;-76
2022/10/24 10:06:30;;;;;;;;;;;28.00;77.50;;;;;;4956277;28;19907;-77
2022/10/24 10:08:56;;;;;;;;;;;29.00;74.00;;;;;;4956628;29;20383;-78
2022/10/24 10:11:32;;;;;;;;;;;29.80;66.20;;;;;;4956798;29;19911;-77
2022/10/24 10:14:00;;;;;;;;;;;29.90;66.60;;;;;;4956771;29;19962;-77
2022/10/24 10:16:38;;;;;;;;;;;28.70;66.70;;;;;;4939466;29;20396;-76
2022/10/24 10:19:11;;;;;;;;;;;26.90;74.10;;;;;;4956689;29;20381;-76
2022/10/24 10:22:06;;;;;;;;;;;26.60;75.60;;;;;;4956958;29;20005;-76
2022/10/24 10:24:34;;;;;;;;;;;28.40;71.60;;;;;;4939304;29;19918;-77
2022/10/24 10:27:00;;;;;;;;;;;28.50;70.80;;;;;;4956573;29;19914;-77
2022/10/24 10:29:26;;;;;;;;;;;28.90;67.60;;;;;;4956529;29;19914;-76
2022/10/24 10:31:58;;;;;;;;;;;29.80;67.30;;;;;;4956443;29;20281;-76
2022/10/24 10:34:30;;;;;;;;;;;30.00;66.70;;;;;;4956414;29;20083;-76
2022/10/24 10:36:55;;;;;;;;;;;30.60;63.40;;;;;;4956447;29;19997;-77
2022/10/24 10:39:27;;;;;;;;;;;30.60;61.90;;;;;;4956588;29;19906;-77
2022/10/24 10:41:56;;;;;;;;;;;27.60;63.90;;;;;;4956350;29;19907;-77
2022/10/24 10:44:25;;;;;;;;;;;26.20;69.80;;;;;;4939093;29;19913;-76
2022/10/24 10:46:50;;;;;;;;;;;24.20;75.00;;;;;;4956162;29;19946;-76
2022/10/24 10:49:38;;;;;;;;;;;23.20;86.10;;;;;;4956233;29;19953;-77
2022/10/24 10:52:19;;;;;;;;;;;24.60;84.70;;;;;;4956198;29;19910;-78
2022/10/24 10:54:53;;;;;;;;;;;27.40;77.00;;;;;;4956682;29;20365;-77
2022/10/24 10:57:21;;;;;;;;;;;26.60;76.60;;;;;;4956542;29;20280;-77
2022/10/24 11:00:01;;;;;;;;;;;25.40;83.60;;;;;;4956092;29;19913;-78
2022/10/24 11:02:30;;;;;;;;;;;27.60;81.80;;;;;;4938773;29;19913;-78
2022/10/24 11:05:18;;;;;;;;;;;28.40;72.30;;;;;;4956177;29;20001;-78
2022/10/24 11:08:03;;;;;;;;;;;27.20;71.30;;;;;;4956061;29;20291;-77
2022/10/24 11:10:34;;;;;;;;;;;26.40;72.50;;;;;;4938665;29;19906;-76
2022/10/24 11:13:02;;;;;;;;;;;23.40;80.50;;;;;;4956007;29;19915;-76
2022/10/24 11:15:36;;;;;;;;;;;23.20;91.30;;;;;;4955813;29;19910;-76
2022/10/24 11:18:07;;;;;;;;;;;23.80;90.30;;;;;;4955273;28;20049;-76
2022/10/24 11:20:38;;;;;;;;;;;27.30;81.50;;;;;;4955662;29;19993;-78
2022/10/24 11:23:10;;;;;;;;;;;30.60;68.20;;;;;;4955502;29;19917;-77
2022/10/24 11:25:57;;;;;;;;;;;28.10;67.10;;;;;;4955861;29;19953;-77
2022/10/24 11:28:36;;;;;;;;;;;25.20;75.80;;;;;;4955726;29;20369;-76
2022/10/24 11:31:01;;;;;;;;;;;27.60;77.40;;;;;;4955526;29;19915;-79
2022/10/24 11:33:29;;;;;;;;;;;30.40;68.00;;;;;;4955651;29;20388;-79
2022/10/24 11:36:06;;;;;;;;;;;31.90;62.60;;;;;;4955550;29;19914;-79
2022/10/24 11:38:34;;;;;;;;;;;32.10;58.80;;;;;;4955618;29;20389;-78
2022/10/24 11:41:35;;;;;;;;;;;31.00;56.90;;;;;;4955919;29;19914;-78
2022/10/24 11:44:04;;;;;;;;;;;31.30;56.60;;;;;;4877969;29;19918;-80
2022/10/24 11:46:35;;;;;;;;;;;31.80;56.60;;;;;;4941290;29;19911;-78
2022/10/24 11:49:04;;;;;;;;;;;32.10;53.40;;;;;;4955653;29;19907;-78
2022/10/24 11:51:46;;;;;;;;;;;31.60;53.80;;;;;;4955409;29;19997;-79
2022/10/24 11:54:17;;;;;;;;;;;31.60;52.70;;;;;;4956215;29;19945;-78
2022/10/24 11:56:46;;;;;;;;;;;31.30;53.50;;;;;;4955529;29;19912;-79
2022/10/24 11:59:14;;;;;;;;;;;31.00;53.70;;;;;;4955476;29;19906;-78
2022/10/24 12:01:40;;;;;;;;;;;30.90;52.70;;;;;;4955506;29;20300;-78
2022/10/24 12:04:24;;;;;;;;;;;31.30;53.90;;;;;;4955233;29;19913;-79
2022/10/24 12:07:05;;;;;;;;;;;31.80;51.70;;;;;;4955429;29;19907;-79
2022/10/24 12:09:34;;;;;;;;;;;29.80;55.20;;;;;;4955432;29;19945;-77
2022/10/24 12:12:05;;;;;;;;;;;29.70;54.70;;;;;;4955225;29;20361;-79
2022/10/24 12:14:49;;;;;;;;;;;30.60;53.90;;;;;;4955519;29;19906;-78
2022/10/24 12:17:44;;;;;;;;;;;30.30;53.70;;;;;;4955334;29;20282;-77
2022/10/24 12:20:15;;;;;;;;;;;27.30;59.30;;;;;;4886568;29;19915;-76
2022/10/24 12:22:42;;;;;;;;;;;25.30;66.80;;;;;;4955312;29;19950;-80
2022/10/24 12:25:26;;;;;;;;;;;26.20;65.90;;;;;;4954718;29;20004;-79
2022/10/24 12:27:56;;;;;;;;;;;27.80;63.00;;;;;;4955134;29;20276;-77
2022/10/24 12:30:23;;;;;;;;;;;29.90;58.60;;;;;;4956052;28;20016;-77
2022/10/24 12:32:52;;;;;;;;;;;28.00;58.80;;;;;;4958752;29;19916;-77
2022/10/24 12:35:29;;;;;;;;;;;27.60;61.20;;;;;;4958716;29;19906;-75
2022/10/24 12:37:55;;;;;;;;;;;28.10;59.20;;;;;;4958747;29;19914;-77
2022/10/24 12:40:39;;;;;;;;;;;27.70;60.50;;;;;;4958697;29;19918;-78
2022/10/24 12:43:11;;;;;;;;;;;29.80;60.30;;;;;;4958507;29;19919;-79
2022/10/24 12:45:36;;;;;;;;;;;31.50;53.10;;;;;;4958500;29;19906;-78
2022/10/24 12:48:11;;;;;;;;;;;29.00;58.00;;;;;;4958416;29;19906;-78
2022/10/24 12:50:52;;;;;;;;;;;27.20;59.80;;;;;;4958364;29;19906;-77
2022/10/24 12:53:29;;;;;;;;;;;25.40;64.90;;;;;;4958947;29;20357;-77
2022/10/24 12:55:54;;;;;;;;;;;23.70;67.10;;;;;;4958302;29;20288;-78
2022/10/24 12:58:20;;;;;;;;;;;24.20;94.60;;;;;;4940897;29;19910;-78
2022/10/24 13:00:55;;;;;;;;;;;26.30;77.10;;;;;;4958179;29;19906;-77
2022/10/24 13:03:29;;;;;;;;;;;30.10;64.70;;;;;;4958141;28;19911;-78
2022/10/24 13:05:54;;;;;;;;;;;28.70;58.40;;;;;;4958238;29;19993;-77
2022/10/24 13:08:34;;;;;;;;;;;25.60;65.20;;;;;;4958102;29;19948;-77
2022/10/24 13:11:19;;;;;;;;;;;23.70;74.60;;;;;;4957975;29;19950;-78
2022/10/24 13:14:05;;;;;;;;;;;22.90;81.70;;;;;;4958324;29;19989;-78
2022/10/24 13:16:37;;;;;;;;;;;22.40;86.40;;;;;;4944260;29;19911;-80
2022/10/24 13:19:02;;;;;;;;;;;28.20;71.60;;;;;;4957823;29;19906;-79
2022/10/24 13:21:29;;;;;;;;;;;28.30;63.80;;;;;;4957945;29;19957;-78
2022/10/24 13:24:19;;;;;;;;;;;25.60;69.80;;;;;;4957553;29;20357;-79
2022/10/24 13:26:52;;;;;;;;;;;24.30;75.40;;;;;;4957770;29;19976;-78
2022/10/24 13:29:20;;;;;;;;;;;23.80;78.70;;;;;;4957696;29;19910;-78
2022/10/24 13:31:47;;;;;;;;;;;24.10;80.30;;;;;;4957547;29;19918;-77
2022/10/24 13:34:39;;;;;;;;;;;27.00;75.80;;;;;;4957669;29;19906;-77
2022/10/24 13:37:19;;;;;;;;;;;28.40;65.00;;;;;;4953631;29;19912;-77
2022/10/24 13:39:50;;;;;;;;;;;30.50;63.50;;;;;;4957720;29;19907;-78
2022/10/24 13:42:24;;;;;;;;;;;32.90;56.40;;;;;;4957078;28;19910;-78
2022/10/24 13:44:51;;;;;;;;;;;32.80;52.70;;;;;;4957394;29;19913;-77
2022/10/24 13:47:32;;;;;;;;;;;34.30;50.60;;;;;;4957585;29;19931;-78
2022/10/24 13:50:03;;;;;;;;;;;35.00;49.30;;;;;;4957320;29;19906;-78
2022/10/24 13:52:33;;;;;;;;;;;34.10;48.10;;;;;;4957235;29;19964;-77
2022/10/24 13:55:11;;;;;;;;;;;34.00;47.00;;;;;;4957752;29;19907;-78
2022/10/24 13:57:48;;;;;;;;;;;33.90;47.10;;;;;;4957163;29;19913;-78
2022/10/24 14:00:35;;;;;;;;;;;33.30;47.20;;;;;;4957911;29;19907;-77
2022/10/24 14:03:03;;;;;;;;;;;34.10;47.20;;;;;;4958046;29;19917;-77
2022/10/24 14:05:34;;;;;;;;;;;34.30;46.90;;;;;;4957326;29;19937;-78
2022/10/24 14:08:00;;;;;;;;;;;31.50;45.60;;;;;;4957164;29;19910;-77
2022/10/24 14:10:26;;;;;;;;;;;32.50;47.90;;;;;;4956923;29;19956;-78
2022/10/24 14:12:55;;;;;;;;;;;33.20;47.30;;;;;;4956791;29;19917;-76
2022/10/24 14:15:29;;;;;;;;;;;32.50;46.40;;;;;;4956818;29;19906;-77
2022/10/24 14:17:56;;;;;;;;;;;29.50;50.40;;;;;;4956852;29;19914;-77
2022/10/24 14:20:23;;;;;;;;;;;30.30;51.10;;;;;;4956640;29;20364;-77
2022/10/24 14:22:49;;;;;;;;;;;30.40;50.70;;;;;;4957181;29;19913;-76
2022/10/24 14:25:26;;;;;;;;;;;28.60;51.20;;;;;;4935888;29;20385;-77
2022/10/24 14:27:56;;;;;;;;;;;28.20;54.20;;;;;;4937664;29;19907;-76